createdAt,value
2023-05-10T00:00:39.471Z,93.08
2023-05-10T00:03:07.548Z,93.35
2023-05-10T00:05:35.627Z,93.71
2023-05-10T00:08:03.668Z,94.26
2023-05-10T00:10:33.212Z,95.22
2023-05-10T00:13:01.515Z,95.95
2023-05-10T00:15:31.445Z,96.42
2023-05-10T00:17:59.717Z,96.41
2023-05-10T00:20:27.795Z,97.43
2023-05-10T00:22:55.868Z,98.12
2023-05-10T00:25:23.994Z,98.06
2023-05-10T00:27:56.239Z,98.19
2023-05-10T00:30:24.480Z,97.74
2023-05-10T00:32:52.824Z,97.71
2023-05-10T00:35:22.513Z,98.24
2023-05-10T00:37:50.665Z,98.37
2023-05-10T00:40:18.976Z,99.03
2023-05-10T00:42:47.326Z,99.98
2023-05-10T00:45:16.926Z,99.81
2023-05-10T00:47:44.915Z,100.00
2023-05-10T00:50:13.010Z,100.00
2023-05-10T00:52:41.125Z,100.00
2023-05-10T00:55:11.102Z,100.00
2023-05-10T00:57:39.209Z,98.96
2023-05-10T01:00:08.746Z,98.99
2023-05-10T01:02:38.395Z,98.29
2023-05-10T01:05:07.415Z,97.24
2023-05-10T01:07:35.488Z,96.12
2023-05-10T01:10:03.853Z,96.61
2023-05-10T01:12:31.920Z,95.55
2023-05-10T01:15:00.292Z,94.17
2023-05-10T01:17:28.560Z,94.52
2023-05-10T01:19:58.069Z,94.09
2023-05-10T01:22:52.183Z,94.82
2023-05-10T01:25:41.326Z,97.20
2023-05-10T01:28:25.207Z,94.69
2023-05-10T01:31:24.142Z,91.40
2023-05-10T01:34:00.803Z,90.53
2023-05-10T01:36:33.587Z,89.46
2023-05-10T01:39:08.293Z,90.25
2023-05-10T01:41:47.356Z,89.03
2023-05-10T01:44:23.198Z,87.83
2023-05-10T01:46:55.922Z,85.15
2023-05-10T01:49:28.725Z,85.88
2023-05-10T01:52:06.049Z,84.33
2023-05-10T01:54:36.468Z,84.84
2023-05-10T01:57:09.826Z,84.71
2023-05-10T01:59:41.951Z,84.12
2023-05-10T02:02:13.117Z,83.79
2023-05-10T02:04:44.259Z,84.10
2023-05-10T02:07:13.764Z,84.43
2023-05-10T02:09:43.473Z,86.23
2023-05-10T02:12:11.727Z,86.11
2023-05-10T02:14:41.992Z,87.75
2023-05-10T02:17:11.669Z,87.42
2023-05-10T02:19:43.826Z,86.99
2023-05-10T02:22:12.530Z,86.71
2023-05-10T02:24:41.698Z,85.92
2023-05-10T02:27:12.230Z,84.83
2023-05-10T02:29:41.156Z,85.14
2023-05-10T02:32:12.015Z,85.79
2023-05-10T02:34:43.141Z,88.04
2023-05-10T02:37:12.113Z,87.73
2023-05-10T02:39:44.772Z,85.99
2023-05-10T02:42:18.028Z,86.06
2023-05-10T02:44:49.901Z,86.01
2023-05-10T02:47:20.684Z,89.26
2023-05-10T02:49:50.602Z,86.66
2023-05-10T02:52:24.245Z,86.28
2023-05-10T02:54:56.755Z,89.46
2023-05-10T02:57:31.214Z,88.49
2023-05-10T02:59:59.423Z,88.06
2023-05-10T03:02:27.761Z,88.93
2023-05-10T03:04:57.222Z,90.07
2023-05-10T03:07:25.840Z,90.12
2023-05-10T03:09:54.595Z,88.44
2023-05-10T03:12:32.411Z,89.87
2023-05-10T03:15:08.070Z,88.72
2023-05-10T03:17:43.343Z,87.57
2023-05-10T03:20:15.750Z,88.56
2023-05-10T03:22:49.615Z,88.42
2023-05-10T03:25:19.540Z,87.37
2023-05-10T03:27:48.840Z,89.18
2023-05-10T03:30:18.147Z,92.89
2023-05-10T03:32:46.520Z,89.71
2023-05-10T03:35:16.291Z,89.94
2023-05-10T03:37:44.281Z,90.23
2023-05-10T03:40:12.838Z,89.93
2023-05-10T03:42:43.215Z,91.84
2023-05-10T03:45:12.147Z,91.90
2023-05-10T03:47:40.251Z,92.58
2023-05-10T03:50:09.570Z,94.02
2023-05-10T03:52:40.036Z,93.01
2023-05-10T03:55:08.934Z,93.42
2023-05-10T03:57:37.067Z,93.57
2023-05-10T04:00:05.560Z,93.21
2023-05-10T04:02:33.664Z,92.54
2023-05-10T04:05:01.740Z,92.36
2023-05-10T04:07:30.330Z,92.92
2023-05-10T04:09:59.910Z,94.56
2023-05-10T04:12:28.146Z,93.80
2023-05-10T04:14:56.350Z,93.33
2023-05-10T04:17:24.776Z,93.41
2023-05-10T04:19:55.866Z,94.34
2023-05-10T04:22:24.040Z,94.66
2023-05-10T04:24:52.360Z,94.68
2023-05-10T04:27:22.014Z,95.83
2023-05-10T04:29:51.209Z,95.20
2023-05-10T04:32:20.141Z,93.44
2023-05-10T04:34:48.291Z,92.71
2023-05-10T04:37:16.403Z,91.05
2023-05-10T04:39:44.423Z,89.89
2023-05-10T04:42:12.821Z,89.28
2023-05-10T04:44:42.267Z,87.06
2023-05-10T04:47:12.581Z,86.72
2023-05-10T04:49:40.818Z,85.89
2023-05-10T04:52:08.855Z,84.56
2023-05-10T04:54:36.921Z,82.75
2023-05-10T04:57:05.403Z,82.45
2023-05-10T04:59:38.331Z,82.49
2023-05-10T05:02:07.932Z,81.01
2023-05-10T05:04:36.036Z,80.70
2023-05-10T05:07:04.121Z,80.76
2023-05-10T05:09:32.961Z,80.73
2023-05-10T05:12:01.124Z,81.21
2023-05-10T05:14:29.212Z,81.54
2023-05-10T05:16:57.534Z,80.92
2023-05-10T05:19:26.924Z,81.52
2023-05-10T05:21:54.966Z,82.10
2023-05-10T05:24:22.969Z,81.67
2023-05-10T05:26:50.988Z,81.99
2023-05-10T05:29:18.951Z,81.51
2023-05-10T05:31:46.925Z,81.92
2023-05-10T05:34:14.961Z,82.18
2023-05-10T05:36:44.537Z,82.35
2023-05-10T05:39:12.627Z,82.03
2023-05-10T05:41:40.616Z,80.75
2023-05-10T05:44:08.621Z,78.55
2023-05-10T05:46:36.689Z,78.55
2023-05-10T05:49:04.647Z,75.68
2023-05-10T05:51:33.251Z,76.71
2023-05-10T05:54:02.750Z,73.29
2023-05-10T05:56:30.984Z,71.17
2023-05-10T05:58:58.963Z,71.18
2023-05-10T06:01:26.829Z,69.04
2023-05-10T06:03:54.838Z,69.54
2023-05-10T06:06:22.907Z,70.15
2023-05-10T06:08:50.958Z,67.27
2023-05-10T06:11:21.516Z,64.64
2023-05-10T06:13:49.630Z,64.79
2023-05-10T06:16:17.808Z,63.30
2023-05-10T06:18:45.846Z,62.12
2023-05-10T06:21:13.864Z,62.62
2023-05-10T06:23:41.929Z,62.31
2023-05-10T06:26:10.191Z,62.30
2023-05-10T06:28:40.171Z,59.78
2023-05-10T06:31:08.587Z,62.45
2023-05-10T06:33:36.726Z,62.00
2023-05-10T06:36:05.232Z,63.07
2023-05-10T06:38:33.226Z,61.55
2023-05-10T06:41:01.689Z,60.64
2023-05-10T06:43:30.720Z,59.03
2023-05-10T06:46:00.126Z,58.19
2023-05-10T06:48:28.234Z,56.84
2023-05-10T06:50:56.234Z,59.13
2023-05-10T06:53:24.289Z,58.78
2023-05-10T06:55:52.942Z,58.98
2023-05-10T06:58:21.248Z,58.13
2023-05-10T07:00:49.298Z,57.21
2023-05-10T07:03:18.923Z,55.83
2023-05-10T07:05:47.722Z,55.78
2023-05-10T07:08:15.874Z,57.41
2023-05-10T07:10:43.932Z,56.25
2023-05-10T07:13:12.109Z,55.83
2023-05-10T07:15:40.272Z,56.74
2023-05-10T07:18:08.780Z,56.67
2023-05-10T07:20:38.255Z,55.90
2023-05-10T07:23:06.288Z,54.66
2023-05-10T07:25:34.388Z,54.83
2023-05-10T07:28:02.556Z,54.44
2023-05-10T07:30:30.760Z,54.72
2023-05-10T07:32:58.751Z,53.46
2023-05-10T07:35:26.729Z,53.46
2023-05-10T07:37:56.172Z,54.13
2023-05-10T07:40:24.381Z,54.41
2023-05-10T07:42:52.468Z,54.91
2023-05-10T07:45:20.632Z,54.10
2023-05-10T07:47:48.696Z,54.87
2023-05-10T07:50:16.848Z,53.52
2023-05-10T07:52:46.593Z,54.14
2023-05-10T07:55:16.877Z,53.73
2023-05-10T07:57:45.440Z,52.94
2023-05-10T08:00:18.960Z,52.20
2023-05-10T08:02:47.083Z,51.77
2023-05-10T08:05:15.719Z,51.65
2023-05-10T08:07:44.043Z,51.66
2023-05-10T08:10:13.166Z,52.03
2023-05-10T08:12:42.649Z,51.75
2023-05-10T08:15:12.201Z,52.14
2023-05-10T08:17:40.493Z,52.11
2023-05-10T08:20:09.697Z,51.50
2023-05-10T08:22:38.324Z,51.34
2023-05-10T08:25:07.778Z,52.22
2023-05-10T08:27:35.894Z,51.94
2023-05-10T08:30:05.846Z,51.57
2023-05-10T08:32:34.034Z,51.03
2023-05-10T08:35:02.014Z,50.38
2023-05-10T08:37:33.258Z,49.96
2023-05-10T08:40:01.318Z,50.68
2023-05-10T08:42:32.869Z,51.14
2023-05-10T08:45:01.773Z,50.93
2023-05-10T08:47:31.762Z,50.28
2023-05-10T08:50:00.988Z,51.12
2023-05-10T08:52:30.394Z,50.31
2023-05-10T08:54:58.797Z,50.66
2023-05-10T08:57:29.162Z,50.44
2023-05-10T08:59:57.315Z,49.18
2023-05-10T09:02:25.940Z,48.17
2023-05-10T09:04:55.707Z,49.62
2023-05-10T09:07:23.870Z,48.63
2023-05-10T09:09:52.472Z,48.92
2023-05-10T09:12:20.581Z,48.42
2023-05-10T09:14:49.104Z,48.46
2023-05-10T09:17:17.168Z,47.47
2023-05-10T09:19:45.188Z,46.17
2023-05-10T09:22:14.711Z,45.50
2023-05-10T09:24:46.362Z,46.28
2023-05-10T09:27:14.444Z,45.81
2023-05-10T09:29:43.703Z,45.71
2023-05-10T09:32:13.886Z,44.79
2023-05-10T09:34:43.282Z,44.46
2023-05-10T09:37:11.676Z,43.28
2023-05-10T09:39:42.326Z,41.86
2023-05-10T09:42:11.786Z,41.90
2023-05-10T09:44:41.923Z,41.09
2023-05-10T09:47:10.316Z,40.05
2023-05-10T09:49:38.577Z,39.73
2023-05-10T09:52:07.979Z,39.47
2023-05-10T09:54:37.080Z,38.82
2023-05-10T09:57:06.994Z,37.17
2023-05-10T09:59:36.270Z,37.46
2023-05-10T10:02:05.162Z,35.29
2023-05-10T10:04:33.844Z,34.80
2023-05-10T10:07:03.776Z,34.33
2023-05-10T10:09:31.842Z,35.26
2023-05-10T10:12:00.529Z,34.44
2023-05-10T10:14:30.529Z,33.27
2023-05-10T10:17:06.488Z,33.67
2023-05-10T10:19:36.565Z,32.18
2023-05-10T10:22:05.265Z,33.42
2023-05-10T10:24:33.430Z,32.53
2023-05-10T10:27:10.044Z,32.17
2023-05-10T10:29:51.160Z,29.73
2023-05-10T10:32:28.232Z,27.85
2023-05-10T10:34:57.735Z,29.40
2023-05-10T10:37:43.295Z,30.58
2023-05-10T10:40:31.906Z,30.61
2023-05-10T10:43:24.251Z,30.10
2023-05-10T10:46:15.640Z,29.22
2023-05-10T10:48:49.111Z,30.18
2023-05-10T10:51:17.215Z,28.30
2023-05-10T10:53:45.806Z,27.22
2023-05-10T10:56:16.312Z,28.32
2023-05-10T10:58:54.760Z,28.17
2023-05-10T11:01:24.497Z,28.35
2023-05-10T11:04:21.494Z,27.81
2023-05-10T11:06:49.688Z,29.43
2023-05-10T11:09:18.526Z,28.91
2023-05-10T11:11:53.057Z,30.40
2023-05-10T11:14:23.547Z,28.50
2023-05-10T11:16:53.906Z,29.09
2023-05-10T11:19:21.983Z,29.19
2023-05-10T11:21:51.275Z,30.04
2023-05-10T11:24:21.235Z,30.57
2023-05-10T11:26:52.434Z,29.48
2023-05-10T11:29:21.141Z,30.53
2023-05-10T11:31:50.247Z,29.71
2023-05-10T11:34:31.281Z,31.25
2023-05-10T11:37:00.190Z,29.00
2023-05-10T11:39:29.678Z,30.31
2023-05-10T11:41:59.061Z,28.96
2023-05-10T11:44:31.621Z,28.62
2023-05-10T11:47:01.177Z,27.92
2023-05-10T11:49:30.752Z,28.89
2023-05-10T11:52:06.568Z,30.35
2023-05-10T11:54:35.898Z,29.54
2023-05-10T11:57:04.583Z,30.25
2023-05-10T11:59:32.924Z,27.58
2023-05-10T12:02:04.278Z,29.04
2023-05-10T12:04:34.170Z,29.43
2023-05-10T12:07:02.323Z,27.37
2023-05-10T12:09:40.079Z,26.87
2023-05-10T12:12:11.772Z,26.29
2023-05-10T12:14:39.932Z,26.27
2023-05-10T12:17:08.056Z,25.32
2023-05-10T12:19:44.916Z,26.33
2023-05-10T12:22:13.079Z,26.01
2023-05-10T12:24:41.070Z,26.16
2023-05-10T12:27:10.863Z,26.27
2023-05-10T12:29:42.229Z,27.44
2023-05-10T12:32:11.148Z,27.88
2023-05-10T12:34:39.614Z,29.31
2023-05-10T12:37:09.179Z,28.78
2023-05-10T12:39:42.388Z,27.42
2023-05-10T12:42:10.646Z,30.34
2023-05-10T12:44:38.792Z,29.96
2023-05-10T12:47:06.986Z,29.07
2023-05-10T12:49:35.254Z,29.00
2023-05-10T12:52:03.346Z,28.55
2023-05-10T12:54:32.752Z,30.21
2023-05-10T12:57:00.713Z,28.56
2023-05-10T12:59:28.864Z,29.41
2023-05-10T13:01:56.910Z,29.09
2023-05-10T13:04:24.944Z,28.66
2023-05-10T13:06:53.104Z,31.45
2023-05-10T13:09:21.475Z,29.82
2023-05-10T13:11:51.363Z,28.56
2023-05-10T13:14:21.364Z,28.63
2023-05-10T13:16:49.627Z,27.97
2023-05-10T13:19:18.826Z,26.65
2023-05-10T13:21:46.998Z,26.06
2023-05-10T13:24:15.438Z,25.03
2023-05-10T13:26:43.674Z,24.65
2023-05-10T13:29:12.997Z,22.74
2023-05-10T13:31:41.137Z,22.71
2023-05-10T13:34:09.241Z,22.90
2023-05-10T13:36:37.216Z,25.57
2023-05-10T13:39:06.399Z,24.14
2023-05-10T13:41:35.039Z,25.03
2023-05-10T13:44:03.250Z,24.04
2023-05-10T13:46:32.797Z,22.45
2023-05-10T13:49:00.844Z,22.17
2023-05-10T13:51:28.891Z,21.66
2023-05-10T13:53:56.909Z,21.41
2023-05-10T13:56:24.907Z,20.53
2023-05-10T13:58:53.232Z,19.27
2023-05-10T14:01:21.277Z,17.38
2023-05-10T14:03:50.992Z,15.05
2023-05-10T14:06:19.446Z,13.20
2023-05-10T14:08:47.803Z,12.17
2023-05-10T14:11:16.389Z,11.46
2023-05-10T14:13:44.356Z,10.97
2023-05-10T14:16:12.643Z,10.36
2023-05-10T14:18:40.685Z,9.17
2023-05-10T14:21:10.207Z,8.51
2023-05-10T14:23:38.145Z,8.07
2023-05-10T14:26:06.446Z,8.66
2023-05-10T14:28:34.481Z,9.20
2023-05-10T14:31:02.582Z,8.33
2023-05-10T14:33:30.456Z,8.69
2023-05-10T14:35:58.746Z,9.25
2023-05-10T14:38:28.429Z,11.23
2023-05-10T14:40:56.473Z,12.13
2023-05-10T14:43:24.638Z,13.29
2023-05-10T14:45:52.764Z,14.73
2023-05-10T14:48:22.222Z,16.30
2023-05-10T14:50:50.689Z,16.35
2023-05-10T14:53:19.152Z,17.24
2023-05-10T14:55:48.558Z,17.42
2023-05-10T14:58:16.668Z,18.21
2023-05-10T15:00:44.723Z,19.29
2023-05-10T15:03:13.147Z,20.79
2023-05-10T15:05:41.646Z,20.84
2023-05-10T15:08:10.473Z,21.92
2023-05-10T15:10:39.582Z,23.56
2023-05-10T15:13:09.014Z,24.36
2023-05-10T15:15:37.124Z,24.43
2023-05-10T15:18:05.601Z,24.87
2023-05-10T15:20:33.686Z,24.44
2023-05-10T15:23:01.793Z,24.79
2023-05-10T15:25:29.922Z,24.83
2023-05-10T15:27:57.942Z,26.36
2023-05-10T15:30:27.489Z,27.27
2023-05-10T15:32:55.576Z,26.61
2023-05-10T15:35:23.649Z,26.50
2023-05-10T15:37:51.646Z,27.29
2023-05-10T15:40:19.746Z,27.55
2023-05-10T15:42:47.774Z,27.80
2023-05-10T15:45:16.637Z,27.49
2023-05-10T15:47:46.463Z,27.41
2023-05-10T15:50:14.513Z,27.76
2023-05-10T15:52:42.866Z,28.09
2023-05-10T15:55:13.820Z,28.53
2023-05-10T15:57:42.525Z,27.87
2023-05-10T16:00:12.210Z,26.98
2023-05-10T16:02:40.873Z,27.24
2023-05-10T16:05:11.270Z,27.48
2023-05-10T16:07:40.245Z,27.72
2023-05-10T16:10:10.623Z,27.43
2023-05-10T16:12:39.022Z,28.98
2023-05-10T16:15:08.220Z,27.97
2023-05-10T16:17:36.403Z,27.52
2023-05-10T16:20:04.695Z,27.41
2023-05-10T16:22:34.370Z,27.80
2023-05-10T16:25:02.460Z,29.37
2023-05-10T16:27:33.470Z,29.49
2023-05-10T16:30:01.707Z,30.29
2023-05-10T16:32:29.788Z,31.58
2023-05-10T16:35:00.036Z,30.21
2023-05-10T16:37:29.361Z,29.89
2023-05-10T16:39:58.775Z,30.23
2023-05-10T16:42:26.857Z,30.30
2023-05-10T16:44:55.482Z,31.51
2023-05-10T16:47:26.651Z,31.31
2023-05-10T16:49:54.824Z,31.73
2023-05-10T16:52:23.808Z,32.28
2023-05-10T16:54:51.963Z,31.54
2023-05-10T16:57:21.431Z,32.02
2023-05-10T16:59:49.480Z,32.23
2023-05-10T17:02:17.469Z,32.82
2023-05-10T17:04:45.525Z,33.14
2023-05-10T17:07:14.225Z,33.40
2023-05-10T17:09:43.297Z,34.27
2023-05-10T17:12:11.400Z,34.63
2023-05-10T17:14:43.106Z,34.87
2023-05-10T17:17:11.388Z,35.45
2023-05-10T17:19:39.948Z,35.90
2023-05-10T17:22:07.849Z,37.07
2023-05-10T17:24:35.912Z,37.73
2023-05-10T17:27:04.526Z,38.20
2023-05-10T17:29:32.605Z,38.28
2023-05-10T17:32:02.291Z,38.84
2023-05-10T17:34:30.357Z,39.20
2023-05-10T17:36:58.795Z,39.34
2023-05-10T17:39:26.790Z,39.69
2023-05-10T17:41:54.837Z,41.09
2023-05-10T17:44:23.008Z,40.13
2023-05-10T17:46:51.056Z,39.93
2023-05-10T17:49:20.463Z,40.48
2023-05-10T17:51:49.121Z,40.16
2023-05-10T17:54:17.281Z,40.04
2023-05-10T17:56:45.533Z,41.14
2023-05-10T17:59:13.571Z,42.19
2023-05-10T18:01:41.922Z,43.09
2023-05-10T18:04:10.191Z,44.53
2023-05-10T18:06:39.754Z,45.51
2023-05-10T18:09:08.441Z,46.23
2023-05-10T18:11:38.086Z,46.83
2023-05-10T18:14:05.995Z,47.02
2023-05-10T18:16:34.167Z,47.03
2023-05-10T18:19:02.349Z,47.94
2023-05-10T18:21:31.428Z,48.13
2023-05-10T18:24:01.806Z,48.65
2023-05-10T18:26:29.970Z,49.19
2023-05-10T18:28:59.391Z,49.91
2023-05-10T18:31:29.412Z,50.55
2023-05-10T18:33:58.044Z,50.58
2023-05-10T18:36:26.384Z,51.28
2023-05-10T18:38:54.996Z,51.83
2023-05-10T18:41:27.119Z,52.78
2023-05-10T18:43:55.581Z,52.84
2023-05-10T18:46:24.227Z,52.81
2023-05-10T18:48:53.122Z,53.52
2023-05-10T18:51:22.332Z,53.87
2023-05-10T18:53:52.417Z,54.97
2023-05-10T18:56:22.131Z,55.49
2023-05-10T18:58:51.696Z,56.36
2023-05-10T19:01:20.208Z,56.73
2023-05-10T19:03:48.697Z,57.19
2023-05-10T19:06:16.781Z,57.82
2023-05-10T19:08:47.233Z,57.65
2023-05-10T19:11:15.723Z,58.06
2023-05-10T19:13:45.148Z,58.82
2023-05-10T19:16:16.584Z,60.25
2023-05-10T19:18:45.121Z,60.53
2023-05-10T19:21:13.396Z,63.32
2023-05-10T19:23:42.043Z,63.65
2023-05-10T19:26:13.200Z,63.32
2023-05-10T19:28:41.311Z,65.24
2023-05-10T19:31:09.501Z,65.99
2023-05-10T19:33:39.043Z,66.73
2023-05-10T19:36:09.170Z,68.90
2023-05-10T19:38:38.278Z,69.21
2023-05-10T19:41:06.357Z,69.24
2023-05-10T19:43:35.089Z,68.74
2023-05-10T19:46:04.393Z,69.31
2023-05-10T19:48:32.835Z,70.55
2023-05-10T19:51:03.548Z,72.47
2023-05-10T19:53:31.730Z,72.91
2023-05-10T19:56:04.203Z,72.17
2023-05-10T19:58:32.373Z,71.46
2023-05-10T20:01:00.556Z,72.09
2023-05-10T20:03:29.141Z,71.92
2023-05-10T20:05:57.232Z,72.65
2023-05-10T20:08:26.854Z,72.97
2023-05-10T20:10:54.798Z,73.79
2023-05-10T20:13:22.953Z,73.57
2023-05-10T20:15:50.959Z,73.88
2023-05-10T20:18:18.914Z,75.09
2023-05-10T20:20:46.935Z,75.22
2023-05-10T20:23:15.098Z,76.09
2023-05-10T20:25:44.622Z,76.99
2023-05-10T20:28:13.208Z,77.03
2023-05-10T20:30:41.232Z,77.51
2023-05-10T20:33:09.573Z,79.43
2023-05-10T20:35:37.692Z,79.05
2023-05-10T20:38:05.683Z,78.76
2023-05-10T20:40:33.867Z,79.02
2023-05-10T20:43:03.524Z,78.66
2023-05-10T20:45:31.496Z,78.95
2023-05-10T20:47:59.605Z,78.52
2023-05-10T20:50:27.706Z,77.79
2023-05-10T20:52:55.724Z,77.40
2023-05-10T20:55:23.868Z,78.14
2023-05-10T20:57:51.800Z,79.87
2023-05-10T21:00:21.974Z,81.42
2023-05-10T21:02:50.089Z,81.58
2023-05-10T21:05:18.909Z,81.63
2023-05-10T21:07:46.913Z,82.54
2023-05-10T21:10:15.180Z,83.43
2023-05-10T21:12:43.257Z,84.50
2023-05-10T21:15:12.196Z,86.65
2023-05-10T21:17:41.565Z,86.56
2023-05-10T21:20:10.580Z,87.11
2023-05-10T21:22:38.531Z,86.94
2023-05-10T21:25:07.518Z,87.15
2023-05-10T21:27:35.524Z,87.12
2023-05-10T21:30:03.587Z,87.61
2023-05-10T21:32:31.670Z,88.36
2023-05-10T21:35:01.218Z,89.54
2023-05-10T21:37:29.158Z,89.74
2023-05-10T21:39:57.414Z,90.15
2023-05-10T21:42:25.344Z,90.38
2023-05-10T21:44:53.779Z,90.67
2023-05-10T21:47:21.766Z,91.21
2023-05-10T21:49:50.538Z,92.61
2023-05-10T21:52:20.265Z,94.87
2023-05-10T21:54:48.624Z,94.46
2023-05-10T21:57:16.787Z,93.98
2023-05-10T21:59:44.939Z,93.67
2023-05-10T22:02:13.004Z,93.40
2023-05-10T22:04:41.119Z,93.27
2023-05-10T22:07:09.065Z,93.26
2023-05-10T22:09:40.637Z,93.55
2023-05-10T22:12:08.732Z,93.78
2023-05-10T22:14:36.721Z,93.72
2023-05-10T22:17:04.907Z,93.68
2023-05-10T22:19:32.864Z,93.76
2023-05-10T22:22:00.927Z,93.80
2023-05-10T22:24:28.977Z,93.67
2023-05-10T22:26:58.272Z,94.39
2023-05-10T22:29:26.314Z,93.75
2023-05-10T22:31:54.468Z,93.42
2023-05-10T22:34:22.456Z,93.42
2023-05-10T22:36:50.785Z,93.70
2023-05-10T22:39:18.975Z,94.39
2023-05-10T22:41:46.947Z,94.47
2023-05-10T22:44:16.403Z,94.69
2023-05-10T22:46:44.398Z,95.07
2023-05-10T22:49:12.518Z,95.48
2023-05-10T22:51:40.426Z,95.31
2023-05-10T22:54:08.774Z,95.75
2023-05-10T22:56:36.798Z,96.09
2023-05-10T22:59:06.969Z,96.49
2023-05-10T23:01:36.603Z,96.93
2023-05-10T23:04:04.614Z,97.17
2023-05-10T23:06:33.095Z,97.74
2023-05-10T23:09:01.113Z,98.25
2023-05-10T23:11:29.149Z,98.40
2023-05-10T23:13:57.138Z,98.63
2023-05-10T23:16:25.265Z,98.06
2023-05-10T23:18:54.859Z,97.86
2023-05-10T23:21:22.963Z,97.85
2023-05-10T23:23:51.401Z,98.40
2023-05-10T23:26:19.475Z,99.57
2023-05-10T23:28:47.456Z,99.45
2023-05-10T23:31:15.648Z,99.44
2023-05-10T23:33:43.582Z,99.81
2023-05-10T23:36:13.027Z,99.73
2023-05-10T23:38:41.119Z,100.00
2023-05-10T23:41:09.122Z,100.00
2023-05-10T23:43:37.274Z,99.76
2023-05-10T23:46:06.474Z,99.41
2023-05-10T23:48:34.462Z,98.75
2023-05-10T23:51:02.420Z,98.42
2023-05-10T23:53:31.962Z,100.00
2023-05-10T23:55:59.987Z,100.00
2023-05-10T23:58:27.988Z,99.25
